Time;durP1;ratioP1;P1;durP2;ratioP2;P2;SDS_P1;SDS_P2;PMS_P1;PMS_P2;Temp;Humidity;BMP_temperature;BMP_pressure;BME280_temperature;BME280_humidity;BME280_pressure;Samples;Min_cycle;Max_cycle;Signal;HPM_P1;HPM_P2
2022/10/12 00:00:42;;;;;;;9.00;6.33;;;11.00;99.90;;;;;;5014259;28;20450;-82
2022/10/12 00:03:10;;;;;;;8.30;5.80;;;11.10;99.90;;;;;;5014224;28;20556;-83
2022/10/12 00:05:38;;;;;;;11.20;5.90;;;11.00;99.90;;;;;;5015144;28;20474;-82
2022/10/12 00:08:05;;;;;;;9.23;6.03;;;11.00;99.90;;;;;;5014674;28;20439;-83
2022/10/12 00:10:32;;;;;;;12.30;6.60;;;10.80;99.90;;;;;;5016110;28;20450;-82
2022/10/12 00:12:59;;;;;;;6.70;6.00;;;10.60;99.90;;;;;;5015886;28;20466;-82
2022/10/12 00:15:26;;;;;;;8.70;6.37;;;10.50;99.90;;;;;;5009211;28;20546;-81
2022/10/12 00:17:52;;;;;;;7.80;5.93;;;10.40;99.90;;;;;;5028100;28;20466;-82
2022/10/12 00:20:19;;;;;;;10.07;5.83;;;10.30;99.90;;;;;;5014550;28;20998;-82
2022/10/12 00:22:46;;;;;;;8.07;5.80;;;10.50;99.90;;;;;;5017223;28;20508;-80
2022/10/12 00:25:12;;;;;;;8.50;5.67;;;10.40;99.90;;;;;;5033521;28;20502;-82
2022/10/12 00:27:39;;;;;;;7.87;5.23;;;10.40;99.90;;;;;;5035805;28;20443;-81
2022/10/12 00:30:06;;;;;;;9.13;4.93;;;10.30;99.90;;;;;;5035836;28;20454;-80
2022/10/12 00:32:32;;;;;;;11.70;5.50;;;10.50;99.90;;;;;;5024510;28;20470;-82
2022/10/12 00:34:59;;;;;;;6.37;4.90;;;10.50;99.90;;;;;;5015477;28;20968;-82
2022/10/12 00:37:26;;;;;;;6.77;4.97;;;10.60;99.90;;;;;;5020248;28;20473;-82
2022/10/12 00:39:52;;;;;;;6.23;5.53;;;10.60;99.90;;;;;;5010240;28;20474;-81
2022/10/12 00:42:19;;;;;;;10.63;5.73;;;10.60;99.90;;;;;;5001988;28;20475;-82
2022/10/12 00:44:49;;;;;;;5.20;4.70;;;10.60;99.90;;;;;;4998948;28;20447;-82
2022/10/12 00:47:32;;;;;;;6.27;4.93;;;10.60;99.90;;;;;;5004111;28;20511;-82
2022/10/12 00:50:17;;;;;;;8.43;5.50;;;10.60;99.90;;;;;;5011521;28;20738;-82
2022/10/12 00:52:52;;;;;;;9.43;5.00;;;10.60;99.90;;;;;;5011732;28;20473;-81
2022/10/12 00:55:22;;;;;;;5.63;4.90;;;10.30;99.90;;;;;;5013922;28;20557;-82
2022/10/12 00:57:51;;;;;;;7.30;5.00;;;10.50;99.90;;;;;;5016143;28;20501;-82
2022/10/12 01:00:19;;;;;;;7.87;5.07;;;10.40;99.90;;;;;;5011145;28;21008;-81
2022/10/12 01:02:48;;;;;;;8.67;5.20;;;10.30;99.90;;;;;;5011789;28;20489;-82
2022/10/12 01:05:17;;;;;;;5.40;4.90;;;10.40;99.90;;;;;;5011550;28;20502;-82
2022/10/12 01:07:43;;;;;;;5.50;4.90;;;10.50;99.90;;;;;;5015739;28;20868;-81
2022/10/12 01:10:10;;;;;;;6.60;4.53;;;10.40;99.90;;;;;;5024906;28;20468;-82
2022/10/12 01:12:40;;;;;;;5.17;4.67;;;10.30;99.90;;;;;;5011894;28;20496;-79
2022/10/12 01:15:08;;;;;;;6.57;4.90;;;10.20;99.90;;;;;;5017703;28;20438;-81
2022/10/12 01:18:04;;;;;;;6.77;5.40;;;10.20;99.90;;;;;;5014501;28;20454;-82
2022/10/12 01:20:35;;;;;;;7.60;5.07;;;10.20;99.90;;;;;;5011374;28;20458;-82
2022/10/12 01:23:17;;;;;;;7.50;5.33;;;10.10;99.90;;;;;;5015671;28;20482;-82
2022/10/12 01:25:53;;;;;;;5.63;4.77;;;10.00;99.90;;;;;;5021611;28;20521;-82
2022/10/12 01:28:38;;;;;;;6.73;4.50;;;10.00;99.90;;;;;;5016539;28;20531;-82
2022/10/12 01:31:18;;;;;;;5.57;4.00;;;10.00;99.90;;;;;;5011628;28;20468;-83
2022/10/12 01:33:57;;;;;;;5.00;4.20;;;10.00;99.90;;;;;;5019328;28;20485;-82
2022/10/12 01:36:34;;;;;;;6.70;3.80;;;10.00;99.90;;;;;;5020087;28;21030;-81
2022/10/12 01:39:07;;;;;;;4.70;3.90;;;10.00;99.90;;;;;;5014075;28;20884;-83
2022/10/12 01:41:41;;;;;;;7.13;3.87;;;10.20;99.90;;;;;;5015194;28;20510;-82
2022/10/12 01:44:08;;;;;;;6.23;4.20;;;10.40;99.90;;;;;;5016987;28;20494;-83
2022/10/12 01:46:39;;;;;;;4.20;3.80;;;10.40;99.90;;;;;;5019036;28;20486;-82
2022/10/12 01:49:06;;;;;;;7.43;4.43;;;10.40;99.90;;;;;;5013364;28;20458;-78
2022/10/12 01:51:51;;;;;;;5.87;4.80;;;10.30;99.90;;;;;;5018470;28;20994;-80
2022/10/12 01:54:33;;;;;;;5.73;4.07;;;10.20;99.90;;;;;;5022737;28;20474;-79
2022/10/12 01:57:35;;;;;;;5.50;4.67;;;10.10;99.90;;;;;;5034407;28;20803;-82
2022/10/12 02:00:11;;;;;;;5.10;3.60;;;10.00;99.90;;;;;;5007741;28;20682;-81
2022/10/12 02:02:47;;;;;;;5.67;4.53;;;9.80;99.90;;;;;;5027141;28;20446;-80
2022/10/12 02:05:25;;;;;;;5.30;4.67;;;9.80;99.90;;;;;;5029194;28;20481;-81
2022/10/12 02:08:00;;;;;;;6.37;4.27;;;9.70;99.90;;;;;;5016868;28;20478;-82
2022/10/12 02:10:37;;;;;;;6.40;4.27;;;9.70;99.90;;;;;;5023801;28;20470;-82
2022/10/12 02:13:08;;;;;;;4.60;4.10;;;9.80;99.90;;;;;;5034691;28;20446;-82
2022/10/12 02:15:37;;;;;;;6.50;4.13;;;9.80;99.90;;;;;;5029952;28;20497;-82
2022/10/12 02:18:05;;;;;;;5.47;3.80;;;9.70;99.90;;;;;;5037408;28;20450;-82
2022/10/12 02:20:33;;;;;;;4.47;3.30;;;9.80;99.90;;;;;;5039664;28;20449;-81
2022/10/12 02:23:01;;;;;;;4.67;3.93;;;9.70;99.90;;;;;;5038306;28;20477;-83
2022/10/12 02:25:30;;;;;;;9.03;4.97;;;10.00;99.90;;;;;;5032633;28;20485;-82
2022/10/12 02:28:06;;;;;;;4.10;3.60;;;9.90;99.90;;;;;;5024987;28;20998;-81
2022/10/12 02:30:36;;;;;;;4.40;3.80;;;9.80;99.90;;;;;;5003841;28;20486;-82
2022/10/12 02:33:10;;;;;;;6.43;3.87;;;9.70;99.90;;;;;;5008243;28;21105;-82
2022/10/12 02:35:44;;;;;;;4.60;3.90;;;9.70;99.90;;;;;;5012619;28;20501;-81
2022/10/12 02:38:35;;;;;;;4.47;3.97;;;9.60;99.90;;;;;;5011549;28;20497;-81
2022/10/12 02:41:07;;;;;;;10.30;4.30;;;9.60;99.90;;;;;;5022496;28;20470;-82
2022/10/12 02:43:37;;;;;;;8.60;4.13;;;9.70;99.90;;;;;;5019454;28;20451;-81
2022/10/12 02:46:08;;;;;;;4.87;4.30;;;9.70;99.90;;;;;;5013109;28;20695;-82
2022/10/12 02:48:36;;;;;;;4.80;3.90;;;9.80;99.90;;;;;;5009683;28;20508;-82
2022/10/12 02:51:06;;;;;;;7.17;4.37;;;9.90;99.90;;;;;;5009301;28;20500;-81
2022/10/12 02:53:33;;;;;;;5.03;4.53;;;10.00;99.90;;;;;;5011496;28;20563;-81
2022/10/12 02:56:04;;;;;;;6.10;3.63;;;9.90;99.90;;;;;;5016202;28;20478;-81
2022/10/12 02:58:30;;;;;;;7.60;4.63;;;10.10;99.90;;;;;;5013642;28;20514;-81
2022/10/12 03:00:57;;;;;;;6.50;4.27;;;9.80;99.90;;;;;;5009001;28;20505;-81
2022/10/12 03:03:24;;;;;;;7.10;4.20;;;9.80;99.90;;;;;;5011091;28;20549;-82
2022/10/12 03:05:50;;;;;;;5.97;4.10;;;9.80;99.90;;;;;;5010922;28;20540;-81
2022/10/12 03:08:17;;;;;;;5.67;4.63;;;9.80;99.90;;;;;;5006013;28;20501;-81
2022/10/12 03:10:44;;;;;;;5.70;3.63;;;9.70;99.90;;;;;;5017498;28;20461;-83
2022/10/12 03:13:11;;;;;;;9.60;4.77;;;9.70;99.90;;;;;;5025898;28;20903;-81
2022/10/12 03:15:37;;;;;;;6.03;4.30;;;9.50;99.90;;;;;;5008740;28;20573;-81
2022/10/12 03:18:04;;;;;;;5.70;4.10;;;9.40;99.90;;;;;;5012733;28;20485;-81
2022/10/12 03:20:31;;;;;;;5.97;4.30;;;9.50;99.90;;;;;;5013658;28;20473;-82
2022/10/12 03:22:57;;;;;;;5.97;4.10;;;9.40;99.90;;;;;;5014558;28;20585;-81
2022/10/12 03:25:24;;;;;;;6.70;4.00;;;9.50;99.90;;;;;;5017919;28;21078;-81
2022/10/12 03:27:50;;;;;;;5.30;3.80;;;9.50;99.90;;;;;;5019092;28;20549;-83
2022/10/12 03:30:17;;;;;;;6.43;4.77;;;9.50;99.90;;;;;;5010755;28;20481;-82
2022/10/12 03:32:44;;;;;;;8.07;4.40;;;9.50;99.90;;;;;;5013340;28;20533;-82
2022/10/12 03:35:10;;;;;;;6.03;4.30;;;9.50;99.90;;;;;;5018337;28;20446;-82
2022/10/12 03:37:37;;;;;;;7.43;4.40;;;9.50;99.90;;;;;;5013569;28;20450;-80
2022/10/12 03:40:05;;;;;;;5.37;4.10;;;9.50;99.90;;;;;;5006183;28;20936;-81
2022/10/12 03:42:31;;;;;;;7.47;4.33;;;9.50;99.90;;;;;;5009190;28;20532;-80
2022/10/12 03:44:58;;;;;;;7.60;4.10;;;9.40;99.90;;;;;;5011754;28;20525;-81
2022/10/12 03:47:24;;;;;;;8.47;4.40;;;9.30;99.90;;;;;;5019857;28;20576;-82
2022/10/12 03:49:51;;;;;;;5.83;4.27;;;9.30;99.90;;;;;;5011609;28;20454;-81
2022/10/12 03:52:18;;;;;;;5.50;4.23;;;9.30;99.90;;;;;;5012724;28;20478;-81
2022/10/12 03:54:47;;;;;;;4.40;3.57;;;9.30;99.90;;;;;;5003845;28;20446;-82
2022/10/12 03:57:15;;;;;;;4.50;3.67;;;9.20;99.90;;;;;;5011501;28;20524;-82
2022/10/12 03:59:41;;;;;;;4.10;3.70;;;9.30;99.90;;;;;;5015593;28;20493;-82
2022/10/12 04:02:08;;;;;;;5.90;4.00;;;9.30;99.90;;;;;;5014798;28;20963;-81
2022/10/12 04:04:38;;;;;;;7.20;3.97;;;9.20;99.90;;;;;;5009071;28;20532;-83
2022/10/12 04:07:05;;;;;;;6.07;3.90;;;9.20;99.90;;;;;;5004133;28;20516;-82
2022/10/12 04:09:32;;;;;;;5.67;3.70;;;9.50;99.90;;;;;;5010497;28;20462;-82
2022/10/12 04:11:59;;;;;;;8.47;4.37;;;9.50;99.90;;;;;;5011342;28;20565;-81
2022/10/12 04:14:25;;;;;;;11.20;4.33;;;9.50;99.90;;;;;;5012149;28;20875;-82
2022/10/12 04:16:53;;;;;;;6.13;4.07;;;9.30;99.90;;;;;;5001855;28;20478;-83
2022/10/12 04:19:20;;;;;;;5.53;4.10;;;9.30;99.90;;;;;;5011354;28;20481;-81
2022/10/12 04:21:49;;;;;;;7.67;4.30;;;9.40;99.90;;;;;;5010256;28;20943;-81
2022/10/12 04:24:15;;;;;;;6.33;4.10;;;9.40;99.90;;;;;;5024171;28;20449;-82
2022/10/12 04:26:42;;;;;;;6.17;3.90;;;9.30;99.90;;;;;;5004818;28;20491;-83
2022/10/12 04:29:12;;;;;;;5.47;3.90;;;9.40;99.90;;;;;;5014177;28;20458;-83
2022/10/12 04:31:40;;;;;;;9.60;5.27;;;9.20;99.90;;;;;;5010810;28;20482;-84
2022/10/12 04:34:08;;;;;;;8.20;4.10;;;9.20;99.90;;;;;;5015170;28;20512;-82
2022/10/12 04:36:35;;;;;;;4.27;3.87;;;9.10;99.90;;;;;;5024117;28;20480;-82
2022/10/12 04:39:02;;;;;;;5.73;3.80;;;9.20;99.90;;;;;;5022334;28;20599;-82
2022/10/12 04:41:29;;;;;;;9.00;4.43;;;9.20;99.90;;;;;;5014539;28;20973;-82
2022/10/12 04:43:56;;;;;;;5.80;4.43;;;9.10;99.90;;;;;;5013853;28;20494;-83
2022/10/12 04:46:23;;;;;;;4.70;4.20;;;9.20;99.90;;;;;;5013001;28;20513;-80
2022/10/12 04:48:49;;;;;;;9.43;3.50;;;9.10;99.90;;;;;;5006639;28;21031;-82
2022/10/12 04:51:16;;;;;;;5.70;3.77;;;9.00;99.90;;;;;;5018699;28;20462;-82
2022/10/12 04:53:45;;;;;;;5.87;3.80;;;9.00;99.90;;;;;;5024632;28;20509;-83
2022/10/12 04:56:12;;;;;;;8.37;4.40;;;8.90;99.90;;;;;;5034681;28;20478;-83
2022/10/12 04:58:39;;;;;;;7.43;4.70;;;8.80;99.90;;;;;;5015653;28;20453;-82
2022/10/12 05:01:05;;;;;;;5.20;3.80;;;8.60;99.90;;;;;;5030938;28;20454;-82
2022/10/12 05:03:32;;;;;;;6.03;4.30;;;8.60;99.90;;;;;;5017627;28;20528;-82
2022/10/12 05:06:01;;;;;;;8.30;3.20;;;8.50;99.90;;;;;;5009032;28;20900;-82
2022/10/12 05:08:28;;;;;;;3.83;3.33;;;8.40;99.90;;;;;;5018419;28;20457;-82
2022/10/12 05:10:57;;;;;;;7.07;3.73;;;8.40;99.90;;;;;;5013293;28;20462;-81
2022/10/12 05:13:24;;;;;;;4.70;3.60;;;8.60;99.90;;;;;;5013875;28;20486;-82
2022/10/12 05:15:51;;;;;;;6.47;4.60;;;8.60;99.90;;;;;;5011960;28;20531;-81
2022/10/12 05:18:17;;;;;;;4.97;3.80;;;8.70;99.90;;;;;;5003607;28;20469;-81
2022/10/12 05:20:44;;;;;;;9.37;3.83;;;8.60;99.90;;;;;;5010022;28;20458;-82
2022/10/12 05:23:11;;;;;;;5.97;3.37;;;8.50;99.90;;;;;;5021622;28;20453;-83
2022/10/12 05:25:37;;;;;;;7.57;4.13;;;8.40;99.90;;;;;;5034204;28;20473;-83
2022/10/12 05:28:05;;;;;;;6.63;4.30;;;8.40;99.90;;;;;;5031405;28;20498;-82
2022/10/12 05:30:32;;;;;;;5.70;3.67;;;8.30;99.90;;;;;;5033873;28;20447;-83
2022/10/12 05:32:59;;;;;;;4.53;4.10;;;8.30;99.90;;;;;;5011389;28;20492;-84
2022/10/12 05:35:26;;;;;;;5.87;4.23;;;8.20;99.90;;;;;;5012313;28;21069;-83
2022/10/12 05:37:52;;;;;;;5.67;3.70;;;8.20;99.90;;;;;;5014568;28;20449;-80
2022/10/12 05:40:19;;;;;;;6.33;4.40;;;8.30;99.90;;;;;;5020278;28;20493;-82
2022/10/12 05:42:45;;;;;;;10.87;4.77;;;8.40;99.90;;;;;;5021355;28;20914;-80
2022/10/12 05:45:12;;;;;;;8.63;4.50;;;8.50;99.90;;;;;;5015247;28;20520;-81
2022/10/12 05:47:39;;;;;;;8.30;4.67;;;8.60;99.90;;;;;;5015852;28;20462;-81
2022/10/12 05:50:07;;;;;;;7.83;4.47;;;8.50;99.90;;;;;;5017980;28;20466;-79
2022/10/12 05:52:34;;;;;;;5.80;4.00;;;8.40;99.90;;;;;;5018987;28;21019;-82
2022/10/12 05:55:01;;;;;;;6.33;3.97;;;8.50;99.90;;;;;;5005434;28;20452;-81
2022/10/12 05:57:27;;;;;;;7.50;4.03;;;8.50;99.90;;;;;;5017613;28;20469;-82
2022/10/12 05:59:54;;;;;;;6.70;4.00;;;8.50;99.90;;;;;;5010583;28;20490;-82
2022/10/12 06:02:21;;;;;;;8.40;4.40;;;8.40;99.90;;;;;;5021186;28;20569;-81
2022/10/12 06:04:48;;;;;;;6.40;4.27;;;8.40;99.90;;;;;;5018046;28;20457;-81
2022/10/12 06:07:15;;;;;;;6.20;4.40;;;8.40;99.90;;;;;;5015850;28;21257;-83
2022/10/12 06:09:43;;;;;;;5.87;3.93;;;8.40;99.90;;;;;;5017312;28;20467;-82
2022/10/12 06:12:10;;;;;;;6.20;4.10;;;8.50;99.90;;;;;;5012645;28;20497;-82
2022/10/12 06:14:36;;;;;;;7.37;4.93;;;8.50;99.90;;;;;;5003319;28;20797;-82
2022/10/12 06:17:03;;;;;;;9.03;3.70;;;8.40;99.90;;;;;;5012338;28;20502;-81
2022/10/12 06:19:30;;;;;;;7.53;3.93;;;8.50;99.90;;;;;;5018235;28;20956;-82
2022/10/12 06:21:57;;;;;;;7.00;4.40;;;8.50;99.90;;;;;;5018054;28;20450;-81
2022/10/12 06:24:24;;;;;;;4.70;4.20;;;8.50;99.90;;;;;;5006864;28;20518;-82
2022/10/12 06:26:50;;;;;;;10.03;4.20;;;8.40;99.90;;;;;;5009916;28;20636;-83
2022/10/12 06:29:17;;;;;;;8.27;4.40;;;8.40;99.90;;;;;;5015843;28;20473;-82
2022/10/12 06:31:44;;;;;;;7.10;4.50;;;8.40;99.90;;;;;;5015268;28;20458;-82
2022/10/12 06:34:16;;;;;;;4.80;3.90;;;8.40;99.90;;;;;;5013468;28;20478;-83
2022/10/12 06:36:42;;;;;;;9.53;4.90;;;8.50;99.90;;;;;;5012970;28;20470;-82
2022/10/12 06:39:09;;;;;;;5.03;3.50;;;8.50;99.90;;;;;;5014204;28;21038;-83
2022/10/12 06:41:36;;;;;;;4.80;3.70;;;8.50;99.90;;;;;;5010787;28;20924;-83
2022/10/12 06:44:04;;;;;;;5.40;4.10;;;8.50;99.90;;;;;;5011834;28;20508;-84
2022/10/12 06:46:30;;;;;;;6.27;4.27;;;8.50;99.90;;;;;;5012554;28;20458;-82
2022/10/12 06:48:57;;;;;;;5.23;3.97;;;8.60;99.90;;;;;;5009359;28;20455;-82
2022/10/12 06:51:23;;;;;;;7.60;4.33;;;8.50;99.90;;;;;;4996225;28;20479;-82
2022/10/12 06:53:54;;;;;;;5.27;3.80;;;8.40;99.90;;;;;;5014086;28;20917;-83
2022/10/12 06:56:21;;;;;;;7.70;4.30;;;8.50;99.90;;;;;;5013503;28;20514;-84
2022/10/12 06:58:53;;;;;;;7.00;4.10;;;8.50;99.90;;;;;;5015230;28;20485;-82
2022/10/12 07:01:19;;;;;;;9.77;4.70;;;8.50;99.90;;;;;;5015976;28;20447;-84
2022/10/12 07:03:46;;;;;;;5.50;4.20;;;8.60;99.90;;;;;;5014136;28;20454;-82
2022/10/12 07:06:13;;;;;;;6.63;4.63;;;9.80;99.90;;;;;;5002585;28;20482;-84
2022/10/12 07:08:41;;;;;;;7.37;4.33;;;12.40;99.90;;;;;;5009637;28;20952;-80
2022/10/12 07:11:10;;;;;;;3.97;3.30;;;14.30;92.90;;;;;;5015460;28;20968;-81
2022/10/12 07:13:37;;;;;;;6.73;3.80;;;15.20;87.10;;;;;;5007930;28;20895;-84
2022/10/12 07:16:04;;;;;;;6.33;3.80;;;15.10;86.80;;;;;;5008183;28;20474;-81
2022/10/12 07:18:31;;;;;;;8.50;4.10;;;15.50;84.10;;;;;;5005409;28;20466;-82
2022/10/12 07:21:01;;;;;;;7.27;4.07;;;15.50;82.40;;;;;;5006332;28;20549;-83
2022/10/12 07:23:33;;;;;;;6.07;3.40;;;15.50;83.40;;;;;;5015621;28;20490;-82
2022/10/12 07:26:00;;;;;;;6.57;2.90;;;16.30;80.70;;;;;;5009073;28;20481;-82
2022/10/12 07:28:27;;;;;;;7.00;3.80;;;16.40;78.30;;;;;;5019881;28;20442;-82
2022/10/12 07:30:54;;;;;;;6.00;3.80;;;16.70;76.40;;;;;;5008072;28;20454;-82
2022/10/12 07:33:20;;;;;;;6.40;5.07;;;16.10;77.40;;;;;;5011620;28;20482;-81
2022/10/12 07:35:54;;;;;;;4.10;3.60;;;15.20;80.30;;;;;;5022386;28;20497;-82
2022/10/12 07:38:43;;;;;;;7.20;4.50;;;13.90;84.20;;;;;;5010418;28;20974;-82
2022/10/12 07:41:11;;;;;;;6.10;4.03;;;12.60;89.70;;;;;;5009793;28;20454;-82
2022/10/12 07:43:45;;;;;;;7.30;4.07;;;11.90;92.10;;;;;;5014520;28;20454;-82
2022/10/12 07:46:12;;;;;;;6.73;4.13;;;11.80;94.10;;;;;;5016532;28;20552;-83
2022/10/12 07:48:52;;;;;;;5.80;3.37;;;12.50;94.10;;;;;;5012442;28;20908;-83
2022/10/12 07:51:19;;;;;;;6.20;3.90;;;12.90;92.80;;;;;;5016643;28;20889;-84
2022/10/12 07:53:46;;;;;;;6.87;4.47;;;12.60;92.40;;;;;;5014948;28;20485;-83
2022/10/12 07:56:16;;;;;;;8.57;3.43;;;11.80;93.00;;;;;;5010459;28;20969;-80
2022/10/12 07:58:53;;;;;;;10.37;3.83;;;11.20;94.40;;;;;;5014123;28;20447;-83
2022/10/12 08:01:22;;;;;;;4.20;3.40;;;10.80;95.70;;;;;;5016472;28;20529;-83
2022/10/12 08:03:50;;;;;;;5.77;3.30;;;10.40;96.20;;;;;;5014463;28;20540;-81
2022/10/12 08:06:20;;;;;;;6.57;3.27;;;10.20;97.00;;;;;;5014567;28;20551;-83
2022/10/12 08:08:47;;;;;;;6.60;3.20;;;10.10;97.60;;;;;;5009867;28;20878;-83
2022/10/12 08:11:15;;;;;;;10.10;4.10;;;10.20;98.20;;;;;;5014463;28;20462;-82
2022/10/12 08:13:42;;;;;;;6.50;3.47;;;10.10;98.50;;;;;;5014549;28;20490;-82
2022/10/12 08:16:12;;;;;;;11.50;4.17;;;10.00;98.80;;;;;;5006575;28;20573;-82
2022/10/12 08:18:38;;;;;;;6.07;3.73;;;10.20;99.10;;;;;;5005386;28;20481;-83
2022/10/12 08:21:07;;;;;;;7.03;3.77;;;10.30;99.20;;;;;;5010865;28;20463;-82
2022/10/12 08:23:35;;;;;;;5.87;4.50;;;10.40;98.80;;;;;;5012150;28;20450;-81
2022/10/12 08:26:02;;;;;;;5.27;4.17;;;10.50;98.70;;;;;;5011776;28;20478;-81
2022/10/12 08:28:29;;;;;;;4.47;3.37;;;10.50;98.90;;;;;;5014169;28;20932;-84
2022/10/12 08:30:56;;;;;;;9.43;4.57;;;10.60;98.80;;;;;;5005014;28;20450;-84
2022/10/12 08:33:23;;;;;;;5.93;4.10;;;10.60;98.70;;;;;;5015946;28;20584;-81
2022/10/12 08:35:49;;;;;;;6.80;3.50;;;10.90;98.90;;;;;;5021759;28;20493;-82
2022/10/12 08:38:16;;;;;;;7.10;3.87;;;10.70;98.50;;;;;;5011629;28;20459;-82
2022/10/12 08:40:51;;;;;;;5.03;3.27;;;10.90;98.30;;;;;;5006866;28;20455;-81
2022/10/12 08:43:32;;;;;;;8.87;4.17;;;11.00;98.30;;;;;;5014725;28;20462;-83
2022/10/12 08:46:03;;;;;;;6.07;3.03;;;11.30;97.50;;;;;;5005210;28;20948;-83
2022/10/12 08:48:46;;;;;;;6.47;3.17;;;11.10;97.30;;;;;;5009272;28;20493;-83
2022/10/12 08:51:18;;;;;;;6.73;2.83;;;11.40;97.40;;;;;;5020447;28;20577;-83
2022/10/12 08:53:58;;;;;;;6.37;4.13;;;11.40;96.70;;;;;;5015496;28;20478;-83
2022/10/12 08:56:25;;;;;;;9.57;3.97;;;11.40;96.80;;;;;;5012572;28;20470;-83
2022/10/12 08:58:53;;;;;;;5.13;4.37;;;11.10;97.00;;;;;;5015162;28;20512;-82
2022/10/12 09:01:45;;;;;;;4.90;3.90;;;11.40;97.60;;;;;;5014096;28;20446;-80
2022/10/12 09:04:31;;;;;;;5.20;4.03;;;11.60;97.00;;;;;;5015008;28;20461;-82
2022/10/12 09:07:07;;;;;;;7.07;4.13;;;11.50;96.90;;;;;;5019945;28;20505;-81
2022/10/12 09:09:33;;;;;;;9.27;4.50;;;11.50;97.00;;;;;;5033540;28;20459;-81
2022/10/12 09:12:19;;;;;;;7.10;3.70;;;11.50;97.20;;;;;;5032587;28;20454;-81
2022/10/12 09:14:50;;;;;;;8.10;3.70;;;11.60;97.00;;;;;;5035112;28;20497;-82
2022/10/12 09:17:27;;;;;;;4.50;3.20;;;11.70;97.10;;;;;;5040100;28;20461;-82
2022/10/12 09:20:16;;;;;;;7.00;4.20;;;11.50;97.30;;;;;;5036398;28;20438;-82
2022/10/12 09:22:48;;;;;;;12.70;4.40;;;11.70;97.40;;;;;;5031492;28;20473;-82
2022/10/12 09:25:16;;;;;;;9.07;4.37;;;11.80;97.00;;;;;;5025278;28;20512;-83
2022/10/12 09:27:46;;;;;;;5.33;4.03;;;11.90;97.20;;;;;;5022300;28;20526;-81
2022/10/12 09:30:15;;;;;;;8.07;4.50;;;12.00;97.10;;;;;;5016476;28;21003;-80
2022/10/12 09:33:06;;;;;;;4.27;3.87;;;12.20;96.90;;;;;;5016988;28;20520;-82
2022/10/12 09:35:35;;;;;;;6.80;4.27;;;12.50;96.70;;;;;;5018625;28;20509;-82
2022/10/12 09:38:02;;;;;;;5.80;4.13;;;13.00;95.80;;;;;;5011239;28;20497;-82
2022/10/12 09:40:31;;;;;;;6.13;4.10;;;13.30;95.00;;;;;;5020266;28;20462;-81
2022/10/12 09:43:02;;;;;;;9.73;4.20;;;14.20;93.70;;;;;;5020413;28;20545;-82
2022/10/12 09:45:32;;;;;;;5.00;4.57;;;15.10;92.50;;;;;;5015922;28;20543;-82
2022/10/12 09:48:10;;;;;;;5.63;3.33;;;16.00;90.10;;;;;;5015044;28;20454;-81
2022/10/12 09:50:56;;;;;;;7.23;4.10;;;16.40;86.90;;;;;;5015584;28;20460;-83
2022/10/12 09:53:26;;;;;;;6.87;4.77;;;16.10;87.00;;;;;;5017616;28;20489;-82
2022/10/12 09:56:21;;;;;;;6.53;4.80;;;15.70;87.40;;;;;;5014234;28;20481;-83
2022/10/12 09:58:52;;;;;;;7.63;4.80;;;15.10;90.10;;;;;;5017217;28;20470;-82
2022/10/12 10:01:20;;;;;;;9.03;5.20;;;14.90;91.10;;;;;;5015267;28;20862;-82
2022/10/12 10:03:50;;;;;;;5.90;4.27;;;14.90;91.30;;;;;;5015737;28;20554;-82
2022/10/12 10:06:24;;;;;;;7.10;4.80;;;14.70;91.30;;;;;;5018402;28;20576;-83
2022/10/12 10:08:51;;;;;;;8.13;5.07;;;14.50;92.30;;;;;;5013182;28;20450;-82
2022/10/12 10:11:22;;;;;;;9.47;5.53;;;14.60;92.10;;;;;;5016984;28;20453;-80
2022/10/12 10:13:52;;;;;;;6.53;4.90;;;14.60;92.10;;;;;;5014229;28;20518;-82
2022/10/12 10:16:22;;;;;;;8.80;4.63;;;14.90;92.10;;;;;;5017008;28;20528;-82
2022/10/12 10:18:54;;;;;;;5.13;4.37;;;14.90;91.80;;;;;;5012637;28;20450;-82
2022/10/12 10:21:32;;;;;;;8.23;4.20;;;15.10;92.00;;;;;;5013604;28;20859;-82
2022/10/12 10:24:01;;;;;;;7.67;4.70;;;15.30;91.40;;;;;;5027569;28;20445;-81
2022/10/12 10:26:49;;;;;;;5.57;4.67;;;15.30;91.30;;;;;;5035172;28;20493;-80
2022/10/12 10:29:32;;;;;;;6.63;5.13;;;15.10;91.30;;;;;;5027395;28;20505;-81
2022/10/12 10:32:25;;;;;;;6.60;4.87;;;15.20;91.40;;;;;;5032382;28;20494;-81
2022/10/12 10:35:17;;;;;;;5.87;4.47;;;15.20;91.30;;;;;;5033712;28;20486;-83
2022/10/12 10:37:50;;;;;;;5.30;4.40;;;15.10;91.50;;;;;;5004689;28;20498;-81
2022/10/12 10:40:22;;;;;;;9.30;4.90;;;15.00;91.80;;;;;;5015594;28;20540;-81
2022/10/12 10:42:51;;;;;;;5.03;4.27;;;15.00;92.00;;;;;;5015288;28;20532;-80
2022/10/12 10:45:32;;;;;;;7.70;5.07;;;14.80;92.30;;;;;;5015920;28;21405;-78
2022/10/12 10:48:07;;;;;;;15.30;11.33;;;14.80;92.20;;;;;;5016751;28;20778;-81
2022/10/12 10:50:38;;;;;;;9.13;4.50;;;15.20;92.30;;;;;;5028190;28;20764;-79
2022/10/12 10:53:14;;;;;;;5.63;4.60;;;15.50;91.90;;;;;;5021700;28;20829;-81
2022/10/12 10:56:04;;;;;;;4.70;4.13;;;15.50;91.30;;;;;;5016363;28;20505;-82
2022/10/12 10:58:31;;;;;;;9.13;7.40;;;15.50;91.50;;;;;;5020363;28;20520;-81
2022/10/12 11:01:04;;;;;;;7.90;4.67;;;15.60;91.20;;;;;;5019260;28;20442;-81
2022/10/12 11:03:50;;;;;;;9.43;5.07;;;15.70;91.20;;;;;;5009215;28;20443;-80
2022/10/12 11:06:39;;;;;;;9.00;5.20;;;15.80;91.40;;;;;;5020366;28;20520;-81
2022/10/12 11:09:29;;;;;;;8.27;5.47;;;15.90;91.60;;;;;;5010529;28;20564;-81
2022/10/12 11:12:01;;;;;;;8.90;5.27;;;15.80;91.80;;;;;;5013650;28;20459;-82
2022/10/12 11:14:35;;;;;;;7.83;5.00;;;15.90;91.40;;;;;;5013121;28;20476;-81
2022/10/12 11:17:06;;;;;;;9.13;4.67;;;15.90;91.40;;;;;;5008503;28;21027;-82
2022/10/12 11:19:50;;;;;;;6.97;5.00;;;16.10;91.20;;;;;;5014625;28;20477;-82
2022/10/12 11:22:24;;;;;;;11.33;4.70;;;16.10;91.30;;;;;;5012313;28;20493;-82
2022/10/12 11:25:16;;;;;;;8.33;5.07;;;16.20;91.20;;;;;;5014649;28;20504;-83
2022/10/12 11:27:43;;;;;;;7.73;3.90;;;16.20;90.80;;;;;;5008183;28;20482;-83
2022/10/12 11:30:16;;;;;;;7.03;4.70;;;16.10;90.40;;;;;;5017593;28;20842;-82
2022/10/12 11:32:51;;;;;;;5.20;4.00;;;16.00;90.70;;;;;;5016558;28;20454;-82
2022/10/12 11:35:29;;;;;;;6.97;4.80;;;16.00;91.10;;;;;;5013408;28;20917;-82
2022/10/12 11:38:04;;;;;;;7.80;4.50;;;16.10;90.70;;;;;;5002767;28;20438;-82
2022/10/12 11:40:50;;;;;;;6.73;4.23;;;16.10;90.80;;;;;;5012898;28;20570;-81
2022/10/12 11:43:52;;;;;;;8.00;4.87;;;15.90;90.80;;;;;;5019323;28;20445;-82
2022/10/12 11:46:27;;;;;;;6.50;4.20;;;15.80;91.00;;;;;;5016685;28;20473;-81
2022/10/12 11:49:05;;;;;;;7.30;4.40;;;15.80;91.20;;;;;;5002171;28;20833;-82
2022/10/12 11:51:32;;;;;;;6.73;3.83;;;16.00;91.30;;;;;;5007732;28;20467;-81
2022/10/12 11:54:15;;;;;;;6.93;4.60;;;16.00;90.60;;;;;;5006939;28;20478;-81
2022/10/12 11:56:47;;;;;;;5.90;4.57;;;16.00;90.90;;;;;;5013282;28;21043;-82
2022/10/12 11:59:29;;;;;;;7.37;4.27;;;16.10;91.10;;;;;;5012178;28;20462;-82
2022/10/12 12:02:18;;;;;;;8.80;5.00;;;16.20;91.20;;;;;;5004590;28;20490;-82
2022/10/12 12:04:47;;;;;;;6.90;4.70;;;16.10;91.50;;;;;;5013780;28;20454;-83
2022/10/12 12:07:40;;;;;;;11.10;4.73;;;16.30;91.50;;;;;;5012708;28;20512;-83
2022/10/12 12:10:25;;;;;;;7.03;4.20;;;16.30;91.40;;;;;;5015576;28;20454;-83
2022/10/12 12:13:11;;;;;;;6.00;4.00;;;16.30;91.50;;;;;;5012496;28;20442;-81
2022/10/12 12:15:40;;;;;;;6.13;4.30;;;16.40;91.60;;;;;;5013071;28;20520;-83
2022/10/12 12:18:13;;;;;;;6.43;4.60;;;16.30;91.60;;;;;;5012944;28;20454;-81
2022/10/12 12:20:43;;;;;;;8.83;5.27;;;16.40;91.80;;;;;;5015662;28;20441;-80
2022/10/12 12:23:30;;;;;;;9.93;4.83;;;16.40;91.60;;;;;;5014582;28;20459;-81
2022/10/12 12:26:08;;;;;;;6.63;4.80;;;16.30;91.40;;;;;;5005987;28;20502;-82
2022/10/12 12:28:47;;;;;;;6.03;4.00;;;16.60;91.60;;;;;;5008928;28;20442;-82
2022/10/12 12:31:24;;;;;;;6.33;3.90;;;16.70;91.20;;;;;;5014163;28;20476;-81
2022/10/12 12:34:11;;;;;;;8.87;5.37;;;16.70;91.20;;;;;;5008984;28;20458;-79
2022/10/12 12:36:43;;;;;;;7.73;4.00;;;16.90;91.10;;;;;;5011589;28;20470;-82
2022/10/12 12:39:29;;;;;;;5.50;4.13;;;16.80;91.20;;;;;;5010451;28;20485;-81
2022/10/12 12:42:04;;;;;;;6.23;4.40;;;16.80;91.20;;;;;;5013913;28;20542;-80
2022/10/12 12:44:36;;;;;;;5.97;4.27;;;16.80;91.10;;;;;;5009159;28;20540;-81
2022/10/12 12:47:03;;;;;;;6.73;4.27;;;16.80;91.40;;;;;;5017743;28;20477;-80
2022/10/12 12:49:56;;;;;;;5.30;4.10;;;16.80;91.50;;;;;;5006978;28;20505;-79
2022/10/12 12:52:36;;;;;;;10.10;4.70;;;16.70;91.40;;;;;;5010801;28;20944;-82
2022/10/12 12:55:35;;;;;;;12.77;5.60;;;17.20;90.80;;;;;;5012685;28;20501;-81
2022/10/12 12:58:46;;;;;;;5.87;4.73;;;17.70;90.20;;;;;;4999748;28;20928;-81
2022/10/12 13:01:39;;;;;;;7.90;4.20;;;17.60;90.10;;;;;;4948092;29;20452;-81
2022/10/12 13:04:25;;;;;;;6.33;4.70;;;17.50;90.80;;;;;;4954250;29;20480;-82
2022/10/12 13:07:12;;;;;;;5.40;4.10;;;17.60;90.50;;;;;;5006050;28;20501;-80
2022/10/12 13:09:51;;;;;;;6.57;4.60;;;18.10;89.60;;;;;;5005440;28;20489;-81
2022/10/12 13:12:38;;;;;;;6.63;4.63;;;18.70;86.60;;;;;;5025594;28;20480;-81
2022/10/12 13:15:34;;;;;;;4.83;3.90;;;18.60;86.30;;;;;;5025795;28;20469;-82